createdAt,value
2023-05-06T00:00:33.662Z,99.90
2023-05-06T00:03:01.692Z,99.90
2023-05-06T00:05:29.867Z,99.90
2023-05-06T00:07:57.750Z,99.90
2023-05-06T00:10:25.888Z,99.90
2023-05-06T00:12:53.896Z,99.90
2023-05-06T00:15:23.259Z,99.90
2023-05-06T00:17:51.224Z,99.90
2023-05-06T00:20:19.209Z,99.90
2023-05-06T00:22:47.037Z,99.90
2023-05-06T00:25:15.052Z,99.90
2023-05-06T00:27:42.849Z,99.90
2023-05-06T00:30:12.272Z,99.90
2023-05-06T00:32:41.501Z,99.90
2023-05-06T00:35:10.557Z,99.90
2023-05-06T00:37:38.584Z,99.90
2023-05-06T00:40:08.050Z,99.10
2023-05-06T00:42:36.145Z,99.50
2023-05-06T00:45:04.107Z,99.90
2023-05-06T00:47:32.424Z,99.80
2023-05-06T00:50:01.813Z,99.90
2023-05-06T00:52:29.986Z,99.90
2023-05-06T00:54:58.035Z,99.90
2023-05-06T00:57:25.990Z,99.90
2023-05-06T00:59:53.869Z,99.90
2023-05-06T01:02:21.980Z,99.90
2023-05-06T01:04:51.692Z,99.90
2023-05-06T01:07:29.612Z,99.90
2023-05-06T01:10:07.894Z,99.90
2023-05-06T01:12:44.271Z,99.90
2023-05-06T01:15:16.696Z,99.90
2023-05-06T01:17:48.903Z,99.90
2023-05-06T01:20:21.008Z,99.90
2023-05-06T01:22:50.837Z,99.90
2023-05-06T01:25:23.756Z,99.90
2023-05-06T01:27:51.946Z,99.90
2023-05-06T01:30:21.466Z,99.90
2023-05-06T01:32:59.294Z,99.90
2023-05-06T01:35:35.419Z,99.90
2023-05-06T01:38:13.013Z,99.90
2023-05-06T01:40:43.541Z,99.90
2023-05-06T01:43:12.844Z,99.90
2023-05-06T01:45:41.513Z,99.90
2023-05-06T01:48:10.542Z,99.90
2023-05-06T01:50:39.138Z,99.90
2023-05-06T01:53:06.976Z,99.80
2023-05-06T01:55:34.832Z,99.80
2023-05-06T01:58:04.036Z,99.80
2023-05-06T02:00:31.881Z,99.90
2023-05-06T02:02:59.915Z,99.90
2023-05-06T02:05:28.010Z,99.90
2023-05-06T02:07:55.865Z,99.90
2023-05-06T02:10:23.700Z,99.90
2023-05-06T02:12:51.996Z,99.90
2023-05-06T02:15:21.732Z,99.90
2023-05-06T02:17:49.681Z,99.90
2023-05-06T02:20:17.565Z,99.90
2023-05-06T02:22:45.478Z,99.90
2023-05-06T02:25:13.322Z,99.90
2023-05-06T02:27:41.171Z,99.90
2023-05-06T02:30:09.560Z,99.90
2023-05-06T02:32:38.827Z,99.90
2023-05-06T02:35:08.079Z,99.90
2023-05-06T02:37:36.100Z,99.90
2023-05-06T02:40:06.350Z,99.90
2023-05-06T02:42:35.477Z,99.90
2023-05-06T02:45:03.595Z,99.90
2023-05-06T02:47:31.462Z,99.90
2023-05-06T02:50:00.774Z,99.90
2023-05-06T02:52:28.630Z,99.90
2023-05-06T02:54:56.510Z,99.90
2023-05-06T02:57:24.391Z,99.90
2023-05-06T02:59:52.249Z,99.90
2023-05-06T03:02:20.290Z,99.90
2023-05-06T03:04:48.148Z,99.90
2023-05-06T03:07:17.398Z,99.90
2023-05-06T03:09:45.290Z,99.90
2023-05-06T03:12:13.104Z,99.90
2023-05-06T03:14:40.939Z,99.90
2023-05-06T03:17:08.786Z,99.90
2023-05-06T03:19:36.743Z,99.90
2023-05-06T03:22:04.668Z,99.90
2023-05-06T03:24:33.914Z,99.90
2023-05-06T03:27:01.810Z,99.90
2023-05-06T03:29:29.706Z,99.90
2023-05-06T03:31:57.889Z,99.90
2023-05-06T03:34:25.957Z,99.90
2023-05-06T03:36:53.838Z,99.90
2023-05-06T03:39:21.862Z,99.90
2023-05-06T03:41:51.153Z,99.90
2023-05-06T03:44:19.002Z,99.90
2023-05-06T03:46:46.878Z,99.90
2023-05-06T03:49:14.742Z,99.90
2023-05-06T03:51:42.686Z,99.90
2023-05-06T03:54:10.587Z,99.90
2023-05-06T03:56:38.445Z,99.90
2023-05-06T03:59:07.656Z,99.90
2023-05-06T04:01:36.639Z,99.90
2023-05-06T04:04:04.682Z,99.90
2023-05-06T04:06:32.593Z,99.90
2023-05-06T04:09:00.457Z,99.90
2023-05-06T04:11:29.808Z,99.90
2023-05-06T04:13:57.891Z,99.90
2023-05-06T04:16:27.135Z,99.90
2023-05-06T04:18:55.412Z,99.90
2023-05-06T04:21:23.370Z,99.90
2023-05-06T04:23:51.250Z,99.90
2023-05-06T04:26:19.172Z,99.90
2023-05-06T04:28:47.043Z,99.90
2023-05-06T04:31:15.518Z,99.90
2023-05-06T04:33:44.969Z,99.90
2023-05-06T04:36:12.903Z,99.90
2023-05-06T04:38:40.915Z,99.90
2023-05-06T04:41:09.485Z,99.90
2023-05-06T04:43:37.340Z,99.90
2023-05-06T04:46:05.267Z,99.90
2023-05-06T04:48:33.399Z,99.90
2023-05-06T04:51:04.396Z,99.90
2023-05-06T04:53:32.304Z,99.90
2023-05-06T04:56:00.240Z,99.90
2023-05-06T04:58:28.104Z,99.90
2023-05-06T05:00:57.290Z,99.90
2023-05-06T05:03:25.482Z,99.90
2023-05-06T05:05:53.642Z,99.90
2023-05-06T05:08:22.854Z,99.90
2023-05-06T05:10:50.827Z,99.90
2023-05-06T05:13:18.692Z,99.90
2023-05-06T05:15:46.600Z,99.90
2023-05-06T05:18:14.501Z,99.90
2023-05-06T05:20:42.360Z,99.10
2023-05-06T05:23:10.285Z,99.20
2023-05-06T05:25:39.553Z,97.70
2023-05-06T05:28:07.383Z,96.80
2023-05-06T05:30:35.217Z,96.50
2023-05-06T05:33:03.144Z,95.20
2023-05-06T05:35:31.062Z,93.90
2023-05-06T05:37:58.972Z,95.30
2023-05-06T05:40:26.852Z,94.50
2023-05-06T05:42:56.352Z,94.20
2023-05-06T05:45:24.369Z,93.30
2023-05-06T05:47:53.775Z,92.30
2023-05-06T05:50:21.960Z,91.40
2023-05-06T05:52:49.931Z,90.60
2023-05-06T05:55:18.012Z,88.10
2023-05-06T05:57:45.875Z,90.60
2023-05-06T06:00:16.047Z,89.00
2023-05-06T06:02:44.029Z,86.40
2023-05-06T06:05:12.056Z,80.80
2023-05-06T06:07:40.334Z,82.80
2023-05-06T06:10:09.271Z,84.40
2023-05-06T06:12:37.196Z,86.10
2023-05-06T06:15:05.619Z,86.20
2023-05-06T06:17:34.856Z,84.30
2023-05-06T06:20:02.996Z,85.30
2023-05-06T06:22:31.072Z,84.60
2023-05-06T06:24:59.021Z,81.30
2023-05-06T06:27:26.944Z,77.40
2023-05-06T06:29:54.821Z,76.20
2023-05-06T06:32:22.709Z,75.60
2023-05-06T06:34:51.925Z,77.00
2023-05-06T06:37:19.872Z,75.70
2023-05-06T06:39:47.777Z,70.60
2023-05-06T06:42:15.682Z,71.40
2023-05-06T06:44:43.540Z,68.40
2023-05-06T06:47:11.428Z,63.80
2023-05-06T06:49:40.313Z,58.90
2023-05-06T06:52:09.552Z,58.40
2023-05-06T06:54:38.783Z,58.80
2023-05-06T06:57:07.639Z,59.80
2023-05-06T06:59:35.678Z,56.80
2023-05-06T07:02:03.818Z,54.20
2023-05-06T07:04:31.735Z,53.10
2023-05-06T07:06:59.621Z,51.60
2023-05-06T07:09:28.947Z,51.50
2023-05-06T07:11:56.802Z,51.40
2023-05-06T07:14:25.777Z,52.20
2023-05-06T07:16:53.743Z,48.20
2023-05-06T07:19:21.634Z,49.50
2023-05-06T07:21:49.759Z,49.00
2023-05-06T07:24:17.620Z,47.50
2023-05-06T07:26:47.943Z,44.50
2023-05-06T07:29:15.942Z,45.00
2023-05-06T07:31:44.023Z,43.40
2023-05-06T07:34:12.032Z,46.30
2023-05-06T07:36:43.105Z,41.00
2023-05-06T07:39:11.301Z,38.50
2023-05-06T07:41:39.440Z,39.10
2023-05-06T07:44:08.659Z,38.10
2023-05-06T07:46:36.745Z,37.40
2023-05-06T07:49:04.756Z,37.20
2023-05-06T07:51:33.017Z,34.40
2023-05-06T07:54:01.084Z,34.80
2023-05-06T07:56:28.965Z,36.20
2023-05-06T07:58:56.817Z,35.90
2023-05-06T08:01:26.399Z,34.60
2023-05-06T08:03:54.304Z,33.90
2023-05-06T08:06:22.266Z,34.10
2023-05-06T08:08:50.207Z,35.00
2023-05-06T08:11:19.514Z,32.90
2023-05-06T08:13:47.896Z,31.50
2023-05-06T08:16:16.055Z,32.10
2023-05-06T08:18:45.305Z,30.90
2023-05-06T08:21:13.194Z,28.50
2023-05-06T08:23:41.042Z,29.70
2023-05-06T08:26:08.898Z,30.70
2023-05-06T08:28:36.829Z,29.40
2023-05-06T08:31:04.706Z,29.80
2023-05-06T08:33:32.614Z,31.00
2023-05-06T08:36:01.934Z,31.70
2023-05-06T08:38:29.868Z,32.10
2023-05-06T08:41:00.533Z,30.50
2023-05-06T08:43:31.892Z,33.30
2023-05-06T08:46:00.169Z,30.00
2023-05-06T08:48:29.926Z,29.70
2023-05-06T08:51:01.004Z,30.00
2023-05-06T08:53:30.641Z,32.40
2023-05-06T08:56:04.010Z,28.00
2023-05-06T08:58:34.176Z,33.20
2023-05-06T09:01:03.638Z,30.40
2023-05-06T09:03:32.787Z,30.10
2023-05-06T09:06:00.864Z,29.60
2023-05-06T09:08:30.192Z,33.20
2023-05-06T09:10:58.369Z,31.80
2023-05-06T09:13:26.207Z,29.60
2023-05-06T09:15:55.427Z,29.60
2023-05-06T09:18:24.137Z,29.40
2023-05-06T09:20:51.973Z,27.50
2023-05-06T09:23:20.055Z,29.10
2023-05-06T09:25:51.178Z,29.90
2023-05-06T09:28:19.050Z,30.00
2023-05-06T09:30:47.704Z,29.10
2023-05-06T09:33:15.867Z,28.60
2023-05-06T09:35:45.634Z,27.50
2023-05-06T09:38:13.570Z,28.90
2023-05-06T09:40:41.397Z,27.60
2023-05-06T09:43:10.649Z,30.70
2023-05-06T09:45:38.579Z,27.10
2023-05-06T09:48:09.220Z,27.70
2023-05-06T09:50:37.615Z,28.90
2023-05-06T09:53:06.147Z,28.10
2023-05-06T09:55:34.649Z,25.00
2023-05-06T09:58:04.730Z,27.80
2023-05-06T10:00:34.300Z,27.20
2023-05-06T10:03:03.145Z,26.10
2023-05-06T10:05:33.023Z,29.10
2023-05-06T10:08:01.489Z,24.20
2023-05-06T10:10:31.352Z,25.20
2023-05-06T10:12:59.213Z,24.90
2023-05-06T10:15:27.690Z,24.60
2023-05-06T10:17:57.240Z,28.40
2023-05-06T10:20:27.376Z,25.80
2023-05-06T10:23:04.486Z,23.30
2023-05-06T10:25:38.150Z,27.40
2023-05-06T10:28:08.017Z,25.40
2023-05-06T10:30:40.173Z,25.20
2023-05-06T10:33:11.002Z,23.90
2023-05-06T10:35:49.314Z,23.50
2023-05-06T10:38:21.518Z,24.70
2023-05-06T10:40:50.262Z,22.00
2023-05-06T10:43:23.707Z,23.90
2023-05-06T10:46:01.292Z,24.20
2023-05-06T10:48:31.269Z,25.40
2023-05-06T10:51:25.813Z,26.40
2023-05-06T10:54:03.084Z,26.40
2023-05-06T10:56:32.635Z,27.20
2023-05-06T10:59:07.812Z,26.80
2023-05-06T11:01:36.430Z,27.30
2023-05-06T11:04:10.707Z,26.30
2023-05-06T11:06:42.175Z,24.30
2023-05-06T11:09:17.858Z,28.90
2023-05-06T11:11:58.707Z,24.50
2023-05-06T11:14:28.385Z,25.00
2023-05-06T11:16:57.624Z,25.70
2023-05-06T11:19:28.083Z,25.90
2023-05-06T11:21:57.600Z,27.10
2023-05-06T11:24:27.570Z,26.80
2023-05-06T11:26:56.707Z,27.00
2023-05-06T11:29:25.285Z,26.70
2023-05-06T11:31:54.090Z,24.80
2023-05-06T11:34:26.783Z,29.10
2023-05-06T11:37:02.151Z,24.20
2023-05-06T11:39:33.428Z,24.20
2023-05-06T11:42:08.547Z,23.20
2023-05-06T11:44:38.550Z,21.50
2023-05-06T11:47:07.941Z,21.90
2023-05-06T11:49:42.343Z,21.60
2023-05-06T11:52:11.374Z,21.90
2023-05-06T11:54:41.569Z,22.20
2023-05-06T11:57:09.923Z,22.50
2023-05-06T11:59:39.461Z,23.40
2023-05-06T12:02:08.992Z,23.40
2023-05-06T12:04:43.064Z,23.60
2023-05-06T12:07:12.874Z,25.80
2023-05-06T12:09:43.431Z,24.50
2023-05-06T12:12:12.181Z,24.70
2023-05-06T12:14:40.587Z,24.30
2023-05-06T12:17:08.682Z,24.40
2023-05-06T12:19:37.002Z,26.20
2023-05-06T12:22:20.063Z,25.60
2023-05-06T12:24:48.477Z,26.80
2023-05-06T12:27:28.540Z,25.60
2023-05-06T12:29:56.677Z,24.80
2023-05-06T12:32:24.559Z,26.30
2023-05-06T12:34:52.465Z,26.10
2023-05-06T12:37:29.709Z,27.00
2023-05-06T12:40:07.757Z,26.40
2023-05-06T12:42:35.862Z,26.20
2023-05-06T12:45:15.330Z,26.90
2023-05-06T12:47:54.542Z,25.90
2023-05-06T12:50:36.478Z,26.80
2023-05-06T12:53:07.148Z,25.90
2023-05-06T12:55:35.868Z,25.50
2023-05-06T12:58:04.036Z,26.10
2023-05-06T13:00:32.097Z,25.00
2023-05-06T13:03:00.191Z,25.30
2023-05-06T13:05:28.227Z,25.30
2023-05-06T13:07:56.252Z,25.00
2023-05-06T13:10:25.704Z,25.90
2023-05-06T13:12:53.620Z,25.50
2023-05-06T13:15:21.670Z,27.60
2023-05-06T13:17:50.228Z,25.90
2023-05-06T13:20:18.907Z,25.10
2023-05-06T13:22:54.403Z,24.30
2023-05-06T13:25:22.983Z,25.10
2023-05-06T13:27:52.206Z,24.40
2023-05-06T13:30:20.076Z,24.10
2023-05-06T13:32:48.680Z,25.10
2023-05-06T13:35:16.812Z,24.30
2023-05-06T13:37:44.712Z,24.50
2023-05-06T13:40:13.855Z,24.90
2023-05-06T13:42:41.796Z,24.80
2023-05-06T13:45:11.886Z,24.60
2023-05-06T13:47:39.886Z,25.10
2023-05-06T13:50:09.095Z,24.50
2023-05-06T13:52:37.094Z,24.80
2023-05-06T13:55:05.747Z,24.30
2023-05-06T13:57:33.893Z,25.70
2023-05-06T14:00:01.750Z,25.30
2023-05-06T14:02:31.023Z,26.00
2023-05-06T14:04:59.040Z,25.80
2023-05-06T14:07:26.964Z,26.70
2023-05-06T14:09:54.816Z,27.10
2023-05-06T14:12:23.262Z,27.00
2023-05-06T14:14:51.394Z,26.40
2023-05-06T14:17:19.354Z,26.10
2023-05-06T14:19:48.592Z,26.10
2023-05-06T14:22:16.453Z,26.70
2023-05-06T14:24:44.344Z,26.30
2023-05-06T14:27:12.284Z,25.60
2023-05-06T14:29:43.050Z,27.80
2023-05-06T14:32:10.948Z,26.60
2023-05-06T14:34:39.271Z,26.20
2023-05-06T14:37:08.706Z,26.60
2023-05-06T14:39:36.599Z,26.50
2023-05-06T14:42:04.570Z,27.30
2023-05-06T14:44:32.500Z,25.40
2023-05-06T14:47:00.369Z,26.20
2023-05-06T14:49:28.249Z,27.20
2023-05-06T14:51:57.199Z,26.60
2023-05-06T14:54:29.277Z,28.30
2023-05-06T14:57:01.269Z,26.60
2023-05-06T14:59:29.298Z,28.30
2023-05-06T15:01:58.781Z,28.40
2023-05-06T15:04:27.390Z,28.90
2023-05-06T15:06:56.824Z,28.70
2023-05-06T15:09:26.256Z,28.90
2023-05-06T15:11:54.188Z,27.10
2023-05-06T15:14:22.039Z,26.40
2023-05-06T15:16:49.954Z,26.00
2023-05-06T15:19:17.862Z,26.00
2023-05-06T15:21:45.835Z,26.00
2023-05-06T15:24:13.671Z,26.50
2023-05-06T15:26:42.897Z,26.20
2023-05-06T15:29:10.818Z,26.20
2023-05-06T15:31:40.854Z,26.50
2023-05-06T15:34:10.584Z,25.60
2023-05-06T15:36:38.563Z,27.10
2023-05-06T15:39:06.471Z,26.70
2023-05-06T15:41:36.342Z,27.70
2023-05-06T15:44:06.604Z,28.20
2023-05-06T15:46:34.864Z,27.30
2023-05-06T15:49:32.035Z,27.30
2023-05-06T15:51:50.657Z,28.40
2023-05-06T15:54:19.252Z,29.80
2023-05-06T15:56:47.580Z,28.20
2023-05-06T15:59:16.952Z,28.10
2023-05-06T16:04:17.104Z,31.00
2023-05-06T16:06:45.159Z,31.50
2023-05-06T16:09:13.121Z,29.90
2023-05-06T16:11:41.150Z,28.90
2023-05-06T16:14:09.005Z,29.10
2023-05-06T16:16:38.490Z,30.20
2023-05-06T16:19:06.483Z,30.30
2023-05-06T16:21:34.430Z,31.20
2023-05-06T16:24:02.365Z,33.40
2023-05-06T16:26:30.462Z,33.50
2023-05-06T16:28:59.519Z,31.50
2023-05-06T16:31:27.904Z,31.00
2023-05-06T16:33:57.143Z,33.40
2023-05-06T16:36:25.046Z,31.00
2023-05-06T16:38:52.900Z,29.30
2023-05-06T16:41:20.758Z,30.00
2023-05-06T16:43:48.713Z,31.60
2023-05-06T16:46:16.619Z,32.30
2023-05-06T16:48:44.615Z,30.60
2023-05-06T16:51:15.726Z,30.60
2023-05-06T16:53:44.051Z,30.10
2023-05-06T16:56:11.984Z,31.40
2023-05-06T16:58:39.874Z,32.40
2023-05-06T17:01:08.223Z,32.40
2023-05-06T17:03:37.753Z,30.40
2023-05-06T17:06:06.142Z,29.50
2023-05-06T17:08:37.250Z,30.00
2023-05-06T17:11:07.573Z,30.20
2023-05-06T17:13:35.576Z,30.90
2023-05-06T17:16:03.461Z,31.20
2023-05-06T17:18:31.329Z,31.80
2023-05-06T17:20:59.289Z,31.20
2023-05-06T17:23:27.204Z,32.70
2023-05-06T17:25:58.200Z,31.70
2023-05-06T17:28:26.168Z,32.80
2023-05-06T17:30:54.116Z,34.40
2023-05-06T17:33:22.489Z,34.20
2023-05-06T17:35:50.353Z,35.20
2023-05-06T17:38:18.230Z,39.70
2023-05-06T17:40:46.107Z,40.50
2023-05-06T17:43:15.347Z,41.00
2023-05-06T17:45:43.250Z,39.40
2023-05-06T17:48:11.292Z,41.30
2023-05-06T17:50:39.231Z,45.10
2023-05-06T17:53:07.112Z,44.40
2023-05-06T17:55:34.979Z,41.60
2023-05-06T17:58:02.829Z,43.20
2023-05-06T18:00:32.155Z,45.60
2023-05-06T18:03:00.681Z,45.60
2023-05-06T18:05:28.896Z,44.40
2023-05-06T18:07:56.839Z,43.70
2023-05-06T18:10:24.691Z,44.10
2023-05-06T18:12:52.768Z,44.50
2023-05-06T18:15:21.050Z,44.50
2023-05-06T18:17:50.705Z,43.40
2023-05-06T18:20:18.690Z,48.20
2023-05-06T18:22:46.569Z,50.60
2023-05-06T18:25:14.440Z,50.10
2023-05-06T18:27:42.377Z,50.70
2023-05-06T18:30:10.716Z,52.00
2023-05-06T18:32:38.660Z,52.30
2023-05-06T18:35:08.501Z,52.60
2023-05-06T18:37:36.876Z,51.20
2023-05-06T18:40:06.077Z,50.80
2023-05-06T18:42:34.658Z,49.50
2023-05-06T18:45:04.577Z,47.80
2023-05-06T18:47:33.085Z,47.80
2023-05-06T18:50:01.110Z,47.60
2023-05-06T18:52:30.369Z,47.60
2023-05-06T18:54:58.263Z,49.20
2023-05-06T18:57:26.939Z,51.10
2023-05-06T18:59:54.820Z,55.00
2023-05-06T19:02:22.839Z,59.60
2023-05-06T19:04:50.830Z,70.30
2023-05-06T19:07:18.749Z,74.30
2023-05-06T19:09:48.558Z,65.00
2023-05-06T19:12:16.499Z,63.70
2023-05-06T19:14:44.403Z,63.20
2023-05-06T19:17:12.270Z,60.40
2023-05-06T19:19:40.716Z,58.10
2023-05-06T19:22:08.916Z,59.50
2023-05-06T19:24:36.782Z,58.40
2023-05-06T19:27:06.071Z,58.90
2023-05-06T19:29:34.024Z,57.10
2023-05-06T19:32:02.307Z,56.90
2023-05-06T19:34:30.402Z,57.20
2023-05-06T19:36:58.522Z,56.10
2023-05-06T19:39:26.411Z,56.10
2023-05-06T19:41:55.627Z,56.40
2023-05-06T19:44:24.851Z,58.60
2023-05-06T19:46:54.638Z,56.30
2023-05-06T19:49:22.566Z,58.20
2023-05-06T19:51:50.410Z,58.40
2023-05-06T19:54:19.340Z,59.60
2023-05-06T19:56:47.288Z,64.10
2023-05-06T19:59:15.102Z,61.30
2023-05-06T20:01:44.402Z,63.00
2023-05-06T20:04:12.333Z,66.40
2023-05-06T20:06:40.539Z,63.80
2023-05-06T20:09:10.283Z,62.80
2023-05-06T20:11:38.145Z,65.00
2023-05-06T20:14:06.000Z,63.20
2023-05-06T20:16:33.916Z,60.20
2023-05-06T20:19:03.696Z,58.00
2023-05-06T20:21:31.713Z,57.00
2023-05-06T20:23:59.715Z,58.80
2023-05-06T20:26:27.674Z,60.00
2023-05-06T20:28:55.551Z,58.90
2023-05-06T20:31:23.534Z,57.00
2023-05-06T20:33:51.485Z,56.70
2023-05-06T20:36:21.007Z,54.00
2023-05-06T20:38:49.066Z,56.80
2023-05-06T20:41:17.373Z,57.40
2023-05-06T20:43:45.307Z,61.30
2023-05-06T20:46:13.190Z,66.80
2023-05-06T20:48:41.156Z,71.10
2023-05-06T20:51:08.978Z,69.70
2023-05-06T20:53:38.788Z,70.50
2023-05-06T20:56:07.923Z,69.70
2023-05-06T20:58:35.778Z,69.00
2023-05-06T21:01:04.790Z,67.10
2023-05-06T21:03:32.741Z,64.70
2023-05-06T21:06:00.646Z,65.70
2023-05-06T21:08:28.613Z,68.80
2023-05-06T21:10:57.786Z,62.40
2023-05-06T21:13:25.793Z,71.50
2023-05-06T21:15:53.722Z,69.00
2023-05-06T21:18:21.624Z,65.80
2023-05-06T21:20:49.657Z,68.80
2023-05-06T21:23:18.914Z,69.40
2023-05-06T21:25:46.832Z,69.40
2023-05-06T21:28:16.042Z,71.60
2023-05-06T21:30:43.954Z,71.10
2023-05-06T21:33:11.836Z,67.60
2023-05-06T21:35:39.784Z,68.40
2023-05-06T21:38:08.372Z,68.90
2023-05-06T21:40:36.279Z,67.10
2023-05-06T21:43:04.311Z,67.60
2023-05-06T21:45:33.506Z,67.90
2023-05-06T21:48:01.425Z,66.10
2023-05-06T21:50:29.297Z,63.70
2023-05-06T21:52:57.157Z,61.80
2023-05-06T21:55:27.673Z,58.20
2023-05-06T21:57:55.603Z,59.00
2023-05-06T22:00:23.531Z,59.70
2023-05-06T22:02:53.619Z,58.50
2023-05-06T22:05:21.663Z,55.80
2023-05-06T22:07:49.622Z,54.40
2023-05-06T22:10:17.510Z,52.70
2023-05-06T22:12:45.354Z,52.30
2023-05-06T22:15:14.644Z,51.50
2023-05-06T22:17:42.596Z,50.70
2023-05-06T22:20:12.562Z,50.70
2023-05-06T22:22:40.709Z,50.70
2023-05-06T22:25:09.556Z,49.80
2023-05-06T22:27:37.645Z,49.40
2023-05-06T22:30:06.052Z,49.10
2023-05-06T22:32:33.936Z,48.90
2023-05-06T22:35:01.841Z,48.90
2023-05-06T22:37:31.437Z,49.10
2023-05-06T22:39:59.370Z,48.60
2023-05-06T22:42:27.261Z,49.10
2023-05-06T22:44:55.164Z,49.50
2023-05-06T22:47:23.040Z,50.60
2023-05-06T22:49:50.983Z,51.50
2023-05-06T22:52:19.345Z,51.40
2023-05-06T22:54:48.573Z,51.80
2023-05-06T22:57:16.448Z,51.90
2023-05-06T22:59:44.407Z,51.50
2023-05-06T23:02:12.391Z,51.30
2023-05-06T23:04:40.370Z,52.40
2023-05-06T23:07:08.204Z,51.80
2023-05-06T23:09:36.054Z,51.70
2023-05-06T23:12:06.163Z,51.40
2023-05-06T23:14:34.003Z,51.80
2023-05-06T23:17:01.950Z,52.90
2023-05-06T23:19:29.873Z,54.20
2023-05-06T23:21:57.692Z,54.20
2023-05-06T23:24:25.733Z,56.20
2023-05-06T23:26:54.339Z,59.50
2023-05-06T23:29:23.519Z,66.00
2023-05-06T23:31:51.437Z,66.30
2023-05-06T23:34:19.275Z,63.50
2023-05-06T23:36:47.178Z,61.40
2023-05-06T23:39:14.983Z,61.40
2023-05-06T23:41:42.888Z,62.30
2023-05-06T23:44:10.711Z,65.80
2023-05-06T23:46:40.258Z,66.50
2023-05-06T23:49:08.456Z,67.30
2023-05-06T23:51:36.406Z,68.20
2023-05-06T23:54:04.319Z,70.70
2023-05-06T23:56:32.160Z,72.30
2023-05-06T23:59:00.039Z,71.40
